sensor_id;sensor_type;location;lat;lon;timestamp;P1;durP1;ratioP1;P2;durP2;ratioP2
60494;SDS011;46342;49.046;11.920;2022-07-23T00:01:14;5.47;;;4.95;;
60494;SDS011;46342;49.046;11.920;2022-07-23T00:03:39;5.38;;;4.47;;
60494;SDS011;46342;49.046;11.920;2022-07-23T00:06:05;5.15;;;4.65;;
60494;SDS011;46342;49.046;11.920;2022-07-23T00:08:31;5.45;;;4.40;;
60494;SDS011;46342;49.046;11.920;2022-07-23T00:10:56;4.88;;;4.35;;
60494;SDS011;46342;49.046;11.920;2022-07-23T00:13:22;7.65;;;4.80;;
60494;SDS011;46342;49.046;11.920;2022-07-23T00:15:47;4.82;;;4.43;;
60494;SDS011;46342;49.046;11.920;2022-07-23T00:18:13;5.30;;;4.65;;
60494;SDS011;46342;49.046;11.920;2022-07-23T00:20:38;5.35;;;4.82;;
60494;SDS011;46342;49.046;11.920;2022-07-23T00:23:04;4.93;;;4.43;;
60494;SDS011;46342;49.046;11.920;2022-07-23T00:25:29;6.28;;;4.80;;
60494;SDS011;46342;49.046;11.920;2022-07-23T00:27:55;6.68;;;4.50;;
60494;SDS011;46342;49.046;11.920;2022-07-23T02:20:08;4.65;;;4.25;;
60494;SDS011;46342;49.046;11.920;2022-07-23T02:22:35;5.05;;;4.47;;
60494;SDS011;46342;49.046;11.920;2022-07-23T02:25:01;6.53;;;4.28;;
60494;SDS011;46342;49.046;11.920;2022-07-23T02:27:27;5.32;;;4.53;;
60494;SDS011;46342;49.046;11.920;2022-07-23T02:29:53;5.85;;;4.60;;
60494;SDS011;46342;49.046;11.920;2022-07-23T02:32:19;6.05;;;4.82;;
60494;SDS011;46342;49.046;11.920;2022-07-23T02:34:46;5.15;;;4.65;;
60494;SDS011;46342;49.046;11.920;2022-07-23T02:37:12;5.07;;;4.60;;
60494;SDS011;46342;49.046;11.920;2022-07-23T02:39:38;9.95;;;4.75;;
60494;SDS011;46342;49.046;11.920;2022-07-23T02:42:04;5.10;;;4.55;;
60494;SDS011;46342;49.046;11.920;2022-07-23T02:44:29;4.75;;;4.35;;
60494;SDS011;46342;49.046;11.920;2022-07-23T02:46:55;5.25;;;4.00;;
60494;SDS011;46342;49.046;11.920;2022-07-23T02:49:20;7.20;;;4.32;;
60494;SDS011;46342;49.046;11.920;2022-07-23T02:51:46;5.32;;;4.82;;
60494;SDS011;46342;49.046;11.920;2022-07-23T02:54:12;6.78;;;4.25;;
60494;SDS011;46342;49.046;11.920;2022-07-23T02:56:37;7.10;;;3.83;;
60494;SDS011;46342;49.046;11.920;2022-07-23T02:59:03;4.97;;;4.10;;
60494;SDS011;46342;49.046;11.920;2022-07-23T03:01:29;5.57;;;3.85;;
60494;SDS011;46342;49.046;11.920;2022-07-23T03:03:54;3.75;;;3.45;;
60494;SDS011;46342;49.046;11.920;2022-07-23T03:06:20;3.85;;;3.55;;
60494;SDS011;46342;49.046;11.920;2022-07-23T03:08:45;4.30;;;3.90;;
60494;SDS011;46342;49.046;11.920;2022-07-23T03:11:11;5.25;;;4.03;;
60494;SDS011;46342;49.046;11.920;2022-07-23T03:13:37;4.45;;;3.30;;
60494;SDS011;46342;49.046;11.920;2022-07-23T03:16:03;4.47;;;3.20;;
60494;SDS011;46342;49.046;11.920;2022-07-23T03:18:29;4.68;;;3.30;;
60494;SDS011;46342;49.046;11.920;2022-07-23T03:20:54;3.35;;;3.05;;
60494;SDS011;46342;49.046;11.920;2022-07-23T03:23:20;4.43;;;2.95;;
60494;SDS011;46342;49.046;11.920;2022-07-23T03:25:45;3.95;;;2.92;;
60494;SDS011;46342;49.046;11.920;2022-07-23T03:28:15;3.28;;;2.58;;
60494;SDS011;46342;49.046;11.920;2022-07-23T03:30:47;3.90;;;3.03;;
60494;SDS011;46342;49.046;11.920;2022-07-23T03:33:16;3.63;;;2.97;;
60494;SDS011;46342;49.046;11.920;2022-07-23T03:35:43;3.20;;;2.90;;
60494;SDS011;46342;49.046;11.920;2022-07-23T03:38:09;3.05;;;2.80;;
60494;SDS011;46342;49.046;11.920;2022-07-23T03:40:35;3.63;;;2.92;;
60494;SDS011;46342;49.046;11.920;2022-07-23T03:43:00;4.50;;;2.72;;
60494;SDS011;46342;49.046;11.920;2022-07-23T03:45:26;2.80;;;2.60;;
60494;SDS011;46342;49.046;11.920;2022-07-23T03:47:52;3.08;;;2.55;;
60494;SDS011;46342;49.046;11.920;2022-07-23T03:50:18;2.67;;;2.45;;
60494;SDS011;46342;49.046;11.920;2022-07-23T03:52:43;3.45;;;3.15;;
60494;SDS011;46342;49.046;11.920;2022-07-23T03:55:09;3.60;;;2.40;;
60494;SDS011;46342;49.046;11.920;2022-07-23T03:57:34;2.97;;;2.67;;
60494;SDS011;46342;49.046;11.920;2022-07-23T04:00:00;3.03;;;2.33;;
60494;SDS011;46342;49.046;11.920;2022-07-23T04:02:26;2.72;;;2.30;;
60494;SDS011;46342;49.046;11.920;2022-07-23T04:04:51;2.42;;;2.22;;
60494;SDS011;46342;49.046;11.920;2022-07-23T04:07:17;3.67;;;2.45;;
60494;SDS011;46342;49.046;11.920;2022-07-23T04:09:43;2.35;;;2.15;;
60494;SDS011;46342;49.046;11.920;2022-07-23T04:12:09;6.10;;;2.55;;
60494;SDS011;46342;49.046;11.920;2022-07-23T04:14:35;2.67;;;2.40;;
60494;SDS011;46342;49.046;11.920;2022-07-23T04:17:01;2.55;;;2.35;;
60494;SDS011;46342;49.046;11.920;2022-07-23T04:19:27;2.63;;;2.22;;
60494;SDS011;46342;49.046;11.920;2022-07-23T04:21:53;3.17;;;2.47;;
60494;SDS011;46342;49.046;11.920;2022-07-23T04:24:18;3.20;;;2.28;;
60494;SDS011;46342;49.046;11.920;2022-07-23T04:26:44;2.58;;;2.38;;
60494;SDS011;46342;49.046;11.920;2022-07-23T04:29:10;4.40;;;2.50;;
60494;SDS011;46342;49.046;11.920;2022-07-23T04:31:35;3.83;;;2.35;;
60494;SDS011;46342;49.046;11.920;2022-07-23T04:34:01;2.63;;;2.42;;
60494;SDS011;46342;49.046;11.920;2022-07-23T04:36:27;2.65;;;2.45;;
60494;SDS011;46342;49.046;11.920;2022-07-23T04:38:53;2.65;;;2.13;;
60494;SDS011;46342;49.046;11.920;2022-07-23T04:41:19;2.40;;;2.20;;
60494;SDS011;46342;49.046;11.920;2022-07-23T04:43:45;2.58;;;2.08;;
60494;SDS011;46342;49.046;11.920;2022-07-23T04:46:11;2.65;;;2.38;;
60494;SDS011;46342;49.046;11.920;2022-07-23T04:48:37;2.70;;;2.33;;
60494;SDS011;46342;49.046;11.920;2022-07-23T04:51:02;3.70;;;2.30;;
60494;SDS011;46342;49.046;11.920;2022-07-23T04:53:28;2.40;;;2.20;;
60494;SDS011;46342;49.046;11.920;2022-07-23T04:55:54;2.47;;;2.20;;
60494;SDS011;46342;49.046;11.920;2022-07-23T04:58:19;3.90;;;2.30;;
60494;SDS011;46342;49.046;11.920;2022-07-23T05:00:45;2.30;;;2.10;;
60494;SDS011;46342;49.046;11.920;2022-07-23T05:03:11;2.50;;;2.22;;
60494;SDS011;46342;49.046;11.920;2022-07-23T05:05:36;5.28;;;2.08;;
60494;SDS011;46342;49.046;11.920;2022-07-23T05:08:02;3.05;;;2.20;;
60494;SDS011;46342;49.046;11.920;2022-07-23T05:10:28;3.35;;;2.25;;
60494;SDS011;46342;49.046;11.920;2022-07-23T05:12:53;4.22;;;2.25;;
60494;SDS011;46342;49.046;11.920;2022-07-23T05:15:19;2.88;;;1.90;;
60494;SDS011;46342;49.046;11.920;2022-07-23T05:17:44;2.33;;;1.98;;
60494;SDS011;46342;49.046;11.920;2022-07-23T05:20:10;2.00;;;1.67;;
60494;SDS011;46342;49.046;11.920;2022-07-23T05:22:36;2.08;;;1.90;;
60494;SDS011;46342;49.046;11.920;2022-07-23T05:25:01;2.80;;;2.50;;
60494;SDS011;46342;49.046;11.920;2022-07-23T05:27:27;2.30;;;1.88;;
60494;SDS011;46342;49.046;11.920;2022-07-23T05:29:53;2.40;;;2.10;;
60494;SDS011;46342;49.046;11.920;2022-07-23T05:32:18;1.80;;;1.70;;
60494;SDS011;46342;49.046;11.920;2022-07-23T05:34:44;2.15;;;1.90;;
60494;SDS011;46342;49.046;11.920;2022-07-23T05:37:10;2.30;;;2.03;;
60494;SDS011;46342;49.046;11.920;2022-07-23T05:39:35;3.38;;;1.60;;
60494;SDS011;46342;49.046;11.920;2022-07-23T05:42:01;2.20;;;1.98;;
60494;SDS011;46342;49.046;11.920;2022-07-23T05:44:26;4.68;;;2.17;;
60494;SDS011;46342;49.046;11.920;2022-07-23T05:46:52;2.40;;;2.00;;
60494;SDS011;46342;49.046;11.920;2022-07-23T05:49:18;2.58;;;2.10;;
60494;SDS011;46342;49.046;11.920;2022-07-23T05:51:43;2.40;;;1.90;;
60494;SDS011;46342;49.046;11.920;2022-07-23T05:54:09;2.10;;;1.90;;
60494;SDS011;46342;49.046;11.920;2022-07-23T05:56:34;2.17;;;1.95;;
60494;SDS011;46342;49.046;11.920;2022-07-23T05:59:00;2.08;;;1.88;;
60494;SDS011;46342;49.046;11.920;2022-07-23T06:01:26;2.50;;;1.92;;
60494;SDS011;46342;49.046;11.920;2022-07-23T06:03:51;1.90;;;1.70;;
60494;SDS011;46342;49.046;11.920;2022-07-23T06:06:17;1.95;;;1.80;;
60494;SDS011;46342;49.046;11.920;2022-07-23T06:08:43;2.65;;;1.85;;
60494;SDS011;46342;49.046;11.920;2022-07-23T06:11:08;1.75;;;1.65;;
60494;SDS011;46342;49.046;11.920;2022-07-23T06:13:34;3.60;;;2.22;;
60494;SDS011;46342;49.046;11.920;2022-07-23T06:15:59;1.80;;;1.65;;
60494;SDS011;46342;49.046;11.920;2022-07-23T06:18:25;2.10;;;1.88;;
60494;SDS011;46342;49.046;11.920;2022-07-23T06:20:50;1.60;;;1.50;;
60494;SDS011;46342;49.046;11.920;2022-07-23T06:23:16;3.05;;;1.98;;
60494;SDS011;46342;49.046;11.920;2022-07-23T06:25:42;2.10;;;1.95;;
60494;SDS011;46342;49.046;11.920;2022-07-23T06:28:07;10.10;;;2.40;;
60494;SDS011;46342;49.046;11.920;2022-07-23T07:14:40;2.13;;;1.90;;
60494;SDS011;46342;49.046;11.920;2022-07-23T07:17:06;1.77;;;1.67;;
60494;SDS011;46342;49.046;11.920;2022-07-23T07:19:31;2.65;;;1.98;;
60494;SDS011;46342;49.046;11.920;2022-07-23T07:21:57;3.13;;;1.88;;
60494;SDS011;46342;49.046;11.920;2022-07-23T07:24:23;1.80;;;1.58;;
60494;SDS011;46342;49.046;11.920;2022-07-23T07:26:48;2.50;;;1.90;;
60494;SDS011;46342;49.046;11.920;2022-07-23T07:29:14;2.58;;;2.13;;
60494;SDS011;46342;49.046;11.920;2022-07-23T07:31:39;2.00;;;1.88;;
60494;SDS011;46342;49.046;11.920;2022-07-23T07:34:05;3.58;;;1.90;;
60494;SDS011;46342;49.046;11.920;2022-07-23T07:36:31;1.63;;;1.52;;
60494;SDS011;46342;49.046;11.920;2022-07-23T07:38:57;1.77;;;1.60;;
60494;SDS011;46342;49.046;11.920;2022-07-23T07:41:23;2.10;;;1.90;;
60494;SDS011;46342;49.046;11.920;2022-07-23T07:46:16;1.70;;;1.60;;
60494;SDS011;46342;49.046;11.920;2022-07-23T07:48:42;1.95;;;1.70;;
60494;SDS011;46342;49.046;11.920;2022-07-23T07:51:07;1.90;;;1.70;;
60494;SDS011;46342;49.046;11.920;2022-07-23T07:53:33;2.33;;;1.52;;
60494;SDS011;46342;49.046;11.920;2022-07-23T07:55:58;1.55;;;1.45;;
60494;SDS011;46342;49.046;11.920;2022-07-23T07:58:24;2.20;;;1.75;;
60494;SDS011;46342;49.046;11.920;2022-07-23T08:00:50;2.10;;;1.67;;
60494;SDS011;46342;49.046;11.920;2022-07-23T08:03:16;2.28;;;2.00;;
60494;SDS011;46342;49.046;11.920;2022-07-23T08:05:42;1.92;;;1.75;;
60494;SDS011;46342;49.046;11.920;2022-07-23T08:08:08;2.00;;;1.80;;
60494;SDS011;46342;49.046;11.920;2022-07-23T08:10:39;3.25;;;1.80;;
60494;SDS011;46342;49.046;11.920;2022-07-23T08:13:05;2.05;;;1.85;;
60494;SDS011;46342;49.046;11.920;2022-07-23T08:15:31;1.85;;;1.70;;
60494;SDS011;46342;49.046;11.920;2022-07-23T08:17:56;2.00;;;1.80;;
60494;SDS011;46342;49.046;11.920;2022-07-23T08:20:23;2.30;;;1.90;;
60494;SDS011;46342;49.046;11.920;2022-07-23T08:22:50;4.43;;;2.03;;
60494;SDS011;46342;49.046;11.920;2022-07-23T08:25:24;2.10;;;1.70;;
60494;SDS011;46342;49.046;11.920;2022-07-23T08:27:54;1.65;;;1.55;;
60494;SDS011;46342;49.046;11.920;2022-07-23T08:30:21;3.03;;;1.97;;
60494;SDS011;46342;49.046;11.920;2022-07-23T08:33:09;3.20;;;2.17;;
60494;SDS011;46342;49.046;11.920;2022-07-23T08:35:42;1.67;;;1.58;;
60494;SDS011;46342;49.046;11.920;2022-07-23T08:38:15;1.90;;;1.80;;
60494;SDS011;46342;49.046;11.920;2022-07-23T08:40:45;2.22;;;1.60;;
60494;SDS011;46342;49.046;11.920;2022-07-23T08:43:13;2.25;;;2.05;;
60494;SDS011;46342;49.046;11.920;2022-07-23T08:45:41;1.85;;;1.75;;
60494;SDS011;46342;49.046;11.920;2022-07-23T08:48:12;3.50;;;2.03;;
60494;SDS011;46342;49.046;11.920;2022-07-23T08:50:46;2.13;;;1.92;;
60494;SDS011;46342;49.046;11.920;2022-07-23T08:53:14;1.63;;;1.52;;
60494;SDS011;46342;49.046;11.920;2022-07-23T08:55:43;3.83;;;1.80;;
60494;SDS011;46342;49.046;11.920;2022-07-23T09:15:03;2.55;;;2.35;;
60494;SDS011;46342;49.046;11.920;2022-07-23T09:17:36;1.92;;;1.80;;
60494;SDS011;46342;49.046;11.920;2022-07-23T09:20:10;2.67;;;1.60;;
60494;SDS011;46342;49.046;11.920;2022-07-23T09:22:44;2.72;;;2.20;;
60494;SDS011;46342;49.046;11.920;2022-07-23T09:25:18;4.43;;;1.75;;
60494;SDS011;46342;49.046;11.920;2022-07-23T09:27:45;3.13;;;1.75;;
60494;SDS011;46342;49.046;11.920;2022-07-23T09:33:47;2.03;;;1.70;;
60494;SDS011;46342;49.046;11.920;2022-07-23T10:17:15;2.20;;;2.00;;
60494;SDS011;46342;49.046;11.920;2022-07-23T10:19:41;2.08;;;1.98;;
60494;SDS011;46342;49.046;11.920;2022-07-23T10:22:08;2.05;;;1.85;;
60494;SDS011;46342;49.046;11.920;2022-07-23T12:41:19;4.93;;;2.40;;
60494;SDS011;46342;49.046;11.920;2022-07-23T12:43:45;2.70;;;2.50;;
60494;SDS011;46342;49.046;11.920;2022-07-23T12:46:15;3.17;;;2.45;;
60494;SDS011;46342;49.046;11.920;2022-07-23T12:51:21;3.85;;;2.70;;
60494;SDS011;46342;49.046;11.920;2022-07-23T12:53:57;4.20;;;2.70;;
60494;SDS011;46342;49.046;11.920;2022-07-23T12:56:32;3.13;;;2.63;;
60494;SDS011;46342;49.046;11.920;2022-07-23T13:01:29;3.22;;;2.92;;
60494;SDS011;46342;49.046;11.920;2022-07-23T13:06:45;2.55;;;2.35;;
60494;SDS011;46342;49.046;11.920;2022-07-23T13:09:17;2.90;;;2.65;;
60494;SDS011;46342;49.046;11.920;2022-07-23T13:11:48;2.78;;;2.58;;
60494;SDS011;46342;49.046;11.920;2022-07-23T13:14:15;3.13;;;2.65;;
60494;SDS011;46342;49.046;11.920;2022-07-23T13:19:07;2.63;;;2.40;;
60494;SDS011;46342;49.046;11.920;2022-07-23T13:21:33;2.88;;;2.67;;
60494;SDS011;46342;49.046;11.920;2022-07-23T13:23:59;2.80;;;2.55;;
60494;SDS011;46342;49.046;11.920;2022-07-23T13:26:25;2.63;;;2.42;;
60494;SDS011;46342;49.046;11.920;2022-07-23T13:28:52;3.03;;;2.72;;
60494;SDS011;46342;49.046;11.920;2022-07-23T13:31:18;2.80;;;2.60;;
60494;SDS011;46342;49.046;11.920;2022-07-23T13:33:46;5.78;;;3.33;;
60494;SDS011;46342;49.046;11.920;2022-07-23T13:36:12;4.22;;;3.00;;
60494;SDS011;46342;49.046;11.920;2022-07-23T13:38:37;2.67;;;2.40;;
60494;SDS011;46342;49.046;11.920;2022-07-23T13:41:04;8.35;;;2.78;;
60494;SDS011;46342;49.046;11.920;2022-07-23T13:43:30;3.47;;;2.33;;
60494;SDS011;46342;49.046;11.920;2022-07-23T13:45:57;2.83;;;2.63;;
60494;SDS011;46342;49.046;11.920;2022-07-23T13:48:22;6.00;;;2.58;;
60494;SDS011;46342;49.046;11.920;2022-07-23T13:50:48;4.63;;;2.58;;
60494;SDS011;46342;49.046;11.920;2022-07-23T13:53:16;3.85;;;3.42;;
60494;SDS011;46342;49.046;11.920;2022-07-23T13:55:44;3.50;;;3.20;;
60494;SDS011;46342;49.046;11.920;2022-07-23T13:58:11;3.10;;;2.80;;
60494;SDS011;46342;49.046;11.920;2022-07-23T14:00:38;3.15;;;2.90;;
60494;SDS011;46342;49.046;11.920;2022-07-23T14:03:05;3.63;;;3.13;;
60494;SDS011;46342;49.046;11.920;2022-07-23T14:05:31;5.93;;;2.80;;
60494;SDS011;46342;49.046;11.920;2022-07-23T14:07:57;7.38;;;2.80;;
60494;SDS011;46342;49.046;11.920;2022-07-23T14:10:23;3.47;;;2.50;;
60494;SDS011;46342;49.046;11.920;2022-07-23T14:12:49;3.20;;;2.83;;
60494;SDS011;46342;49.046;11.920;2022-07-23T14:17:43;3.40;;;2.50;;
60494;SDS011;46342;49.046;11.920;2022-07-23T14:20:10;3.88;;;2.53;;
60494;SDS011;46342;49.046;11.920;2022-07-23T14:22:36;2.72;;;2.53;;
60494;SDS011;46342;49.046;11.920;2022-07-23T14:25:03;9.90;;;2.80;;
60494;SDS011;46342;49.046;11.920;2022-07-23T14:27:29;2.40;;;2.20;;
60494;SDS011;46342;49.046;11.920;2022-07-23T14:29:55;2.90;;;2.60;;
60494;SDS011;46342;49.046;11.920;2022-07-23T14:32:21;4.07;;;2.70;;
60494;SDS011;46342;49.046;11.920;2022-07-23T14:34:47;2.67;;;2.47;;
60494;SDS011;46342;49.046;11.920;2022-07-23T14:37:13;5.53;;;2.60;;
60494;SDS011;46342;49.046;11.920;2022-07-23T14:39:39;3.92;;;2.55;;
60494;SDS011;46342;49.046;11.920;2022-07-23T14:42:06;5.53;;;2.77;;
60494;SDS011;46342;49.046;11.920;2022-07-23T14:44:32;3.72;;;2.67;;
60494;SDS011;46342;49.046;11.920;2022-07-23T14:46:58;3.53;;;2.83;;
60494;SDS011;46342;49.046;11.920;2022-07-23T14:49:25;3.43;;;3.00;;
60494;SDS011;46342;49.046;11.920;2022-07-23T14:51:51;5.47;;;2.83;;
60494;SDS011;46342;49.046;11.920;2022-07-23T14:54:17;3.17;;;2.80;;
60494;SDS011;46342;49.046;11.920;2022-07-23T14:56:43;2.53;;;2.30;;
60494;SDS011;46342;49.046;11.920;2022-07-23T15:01:22;3.20;;;2.90;;
60494;SDS011;46342;49.046;11.920;2022-07-23T15:03:48;3.97;;;2.90;;
60494;SDS011;46342;49.046;11.920;2022-07-23T15:06:15;3.50;;;3.20;;
60494;SDS011;46342;49.046;11.920;2022-07-23T15:08:41;4.22;;;3.15;;
60494;SDS011;46342;49.046;11.920;2022-07-23T15:11:07;4.20;;;2.47;;
60494;SDS011;46342;49.046;11.920;2022-07-23T15:13:36;2.65;;;2.45;;
60494;SDS011;46342;49.046;11.920;2022-07-23T15:18:29;2.38;;;2.17;;
60494;SDS011;46342;49.046;11.920;2022-07-23T15:20:56;2.95;;;2.53;;
60494;SDS011;46342;49.046;11.920;2022-07-23T15:23:23;3.15;;;2.75;;
60494;SDS011;46342;49.046;11.920;2022-07-23T15:25:49;3.00;;;2.60;;
60494;SDS011;46342;49.046;11.920;2022-07-23T15:28:15;4.38;;;3.05;;
60494;SDS011;46342;49.046;11.920;2022-07-23T15:30:41;2.42;;;2.20;;
60494;SDS011;46342;49.046;11.920;2022-07-23T15:33:06;2.50;;;2.30;;
60494;SDS011;46342;49.046;11.920;2022-07-23T15:35:32;2.72;;;2.53;;
60494;SDS011;46342;49.046;11.920;2022-07-23T15:37:59;2.60;;;2.40;;
60494;SDS011;46342;49.046;11.920;2022-07-23T15:40:25;2.58;;;2.38;;
60494;SDS011;46342;49.046;11.920;2022-07-23T15:42:50;2.97;;;2.67;;
60494;SDS011;46342;49.046;11.920;2022-07-23T15:45:16;3.13;;;2.80;;
60494;SDS011;46342;49.046;11.920;2022-07-23T15:47:42;3.05;;;2.67;;
60494;SDS011;46342;49.046;11.920;2022-07-23T15:50:08;3.30;;;3.00;;
60494;SDS011;46342;49.046;11.920;2022-07-23T15:52:34;4.13;;;2.60;;
60494;SDS011;46342;49.046;11.920;2022-07-23T15:55:01;3.05;;;2.80;;
60494;SDS011;46342;49.046;11.920;2022-07-23T15:57:28;4.35;;;2.90;;
60494;SDS011;46342;49.046;11.920;2022-07-23T15:59:53;2.47;;;2.28;;
60494;SDS011;46342;49.046;11.920;2022-07-23T16:02:21;2.85;;;2.60;;
60494;SDS011;46342;49.046;11.920;2022-07-23T16:04:47;2.90;;;2.70;;
60494;SDS011;46342;49.046;11.920;2022-07-23T16:07:17;2.50;;;2.30;;
60494;SDS011;46342;49.046;11.920;2022-07-23T16:09:43;3.35;;;2.70;;
60494;SDS011;46342;49.046;11.920;2022-07-23T16:12:09;3.58;;;2.30;;
60494;SDS011;46342;49.046;11.920;2022-07-23T16:14:35;2.75;;;2.30;;
60494;SDS011;46342;49.046;11.920;2022-07-23T16:17:01;3.00;;;2.30;;
60494;SDS011;46342;49.046;11.920;2022-07-23T16:19:26;2.05;;;1.92;;
60494;SDS011;46342;49.046;11.920;2022-07-23T16:21:52;3.00;;;2.70;;
60494;SDS011;46342;49.046;11.920;2022-07-23T16:24:18;2.70;;;2.50;;
60494;SDS011;46342;49.046;11.920;2022-07-23T16:26:43;1.92;;;1.77;;
60494;SDS011;46342;49.046;11.920;2022-07-23T16:29:09;2.38;;;2.17;;
60494;SDS011;46342;49.046;11.920;2022-07-23T16:31:36;2.40;;;2.20;;
60494;SDS011;46342;49.046;11.920;2022-07-23T16:34:02;2.40;;;2.20;;
60494;SDS011;46342;49.046;11.920;2022-07-23T16:36:27;2.28;;;2.08;;
60494;SDS011;46342;49.046;11.920;2022-07-23T16:38:53;3.97;;;2.35;;
60494;SDS011;46342;49.046;11.920;2022-07-23T16:41:19;2.40;;;2.20;;
60494;SDS011;46342;49.046;11.920;2022-07-23T16:43:45;2.80;;;2.60;;
60494;SDS011;46342;49.046;11.920;2022-07-23T16:46:10;2.78;;;2.30;;
60494;SDS011;46342;49.046;11.920;2022-07-23T16:48:36;2.28;;;2.08;;
60494;SDS011;46342;49.046;11.920;2022-07-23T16:51:03;2.58;;;2.38;;
60494;SDS011;46342;49.046;11.920;2022-07-23T16:53:29;2.50;;;2.30;;
60494;SDS011;46342;49.046;11.920;2022-07-23T16:55:54;2.60;;;2.40;;
60494;SDS011;46342;49.046;11.920;2022-07-23T16:58:20;2.80;;;2.60;;
60494;SDS011;46342;49.046;11.920;2022-07-23T17:00:45;2.33;;;2.13;;
60494;SDS011;46342;49.046;11.920;2022-07-23T17:03:11;4.60;;;2.28;;
60494;SDS011;46342;49.046;11.920;2022-07-23T17:05:37;2.72;;;2.53;;
60494;SDS011;46342;49.046;11.920;2022-07-23T17:08:03;3.17;;;2.80;;
60494;SDS011;46342;49.046;11.920;2022-07-23T17:10:29;3.00;;;2.70;;
60494;SDS011;46342;49.046;11.920;2022-07-23T17:12:54;2.63;;;2.42;;
60494;SDS011;46342;49.046;11.920;2022-07-23T17:15:22;2.42;;;2.22;;
60494;SDS011;46342;49.046;11.920;2022-07-23T17:17:48;3.03;;;2.60;;
60494;SDS011;46342;49.046;11.920;2022-07-23T17:20:14;2.25;;;2.08;;
60494;SDS011;46342;49.046;11.920;2022-07-23T17:22:39;4.63;;;2.58;;
60494;SDS011;46342;49.046;11.920;2022-07-23T17:25:07;3.78;;;2.40;;
60494;SDS011;46342;49.046;11.920;2022-07-23T17:27:38;2.80;;;2.47;;
60494;SDS011;46342;49.046;11.920;2022-07-23T17:30:07;2.85;;;2.63;;
60494;SDS011;46342;49.046;11.920;2022-07-23T17:32:36;2.88;;;2.38;;
60494;SDS011;46342;49.046;11.920;2022-07-23T17:35:03;3.03;;;2.80;;
60494;SDS011;46342;49.046;11.920;2022-07-23T17:37:29;2.53;;;2.33;;
60494;SDS011;46342;49.046;11.920;2022-07-23T17:39:55;2.97;;;2.60;;
60494;SDS011;46342;49.046;11.920;2022-07-23T17:42:20;3.15;;;2.85;;
60494;SDS011;46342;49.046;11.920;2022-07-23T17:44:46;3.10;;;2.83;;
60494;SDS011;46342;49.046;11.920;2022-07-23T17:47:14;11.50;;;2.85;;
60494;SDS011;46342;49.046;11.920;2022-07-23T17:49:40;3.13;;;2.83;;
60494;SDS011;46342;49.046;11.920;2022-07-23T17:52:07;4.38;;;3.00;;
60494;SDS011;46342;49.046;11.920;2022-07-23T17:54:33;2.60;;;2.40;;
60494;SDS011;46342;49.046;11.920;2022-07-23T17:56:59;6.25;;;3.17;;
60494;SDS011;46342;49.046;11.920;2022-07-23T17:59:25;3.75;;;3.45;;
60494;SDS011;46342;49.046;11.920;2022-07-23T18:01:51;3.05;;;2.78;;
60494;SDS011;46342;49.046;11.920;2022-07-23T18:04:18;3.47;;;3.10;;
60494;SDS011;46342;49.046;11.920;2022-07-23T18:06:44;3.40;;;3.10;;
60494;SDS011;46342;49.046;11.920;2022-07-23T18:09:10;3.72;;;2.88;;
60494;SDS011;46342;49.046;11.920;2022-07-23T18:11:37;3.03;;;2.78;;
60494;SDS011;46342;49.046;11.920;2022-07-23T18:14:04;3.58;;;3.28;;
60494;SDS011;46342;49.046;11.920;2022-07-23T18:16:31;3.38;;;3.08;;
60494;SDS011;46342;49.046;11.920;2022-07-23T18:18:57;3.15;;;2.88;;
60494;SDS011;46342;49.046;11.920;2022-07-23T18:21:23;3.53;;;3.20;;
60494;SDS011;46342;49.046;11.920;2022-07-23T18:23:51;3.97;;;3.60;;
60494;SDS011;46342;49.046;11.920;2022-07-23T18:26:17;3.50;;;3.20;;
60494;SDS011;46342;49.046;11.920;2022-07-23T18:28:44;3.80;;;3.23;;
60494;SDS011;46342;49.046;11.920;2022-07-23T18:31:10;3.58;;;3.28;;
60494;SDS011;46342;49.046;11.920;2022-07-23T18:33:36;3.45;;;3.15;;
60494;SDS011;46342;49.046;11.920;2022-07-23T18:36:02;3.60;;;3.20;;
60494;SDS011;46342;49.046;11.920;2022-07-23T18:38:28;3.78;;;3.47;;
60494;SDS011;46342;49.046;11.920;2022-07-23T18:40:53;3.90;;;3.40;;
60494;SDS011;46342;49.046;11.920;2022-07-23T18:43:19;4.80;;;3.47;;
60494;SDS011;46342;49.046;11.920;2022-07-23T18:45:45;4.05;;;3.30;;
60494;SDS011;46342;49.046;11.920;2022-07-23T18:48:11;3.88;;;3.45;;
60494;SDS011;46342;49.046;11.920;2022-07-23T18:50:40;3.40;;;3.10;;
60494;SDS011;46342;49.046;11.920;2022-07-23T18:53:06;3.97;;;3.67;;
60494;SDS011;46342;49.046;11.920;2022-07-23T18:55:32;3.88;;;2.92;;
60494;SDS011;46342;49.046;11.920;2022-07-23T18:57:58;4.10;;;3.50;;
60494;SDS011;46342;49.046;11.920;2022-07-23T19:00:28;3.97;;;3.25;;
60494;SDS011;46342;49.046;11.920;2022-07-23T19:02:55;3.28;;;2.97;;
60494;SDS011;46342;49.046;11.920;2022-07-23T19:05:22;3.97;;;3.30;;
60494;SDS011;46342;49.046;11.920;2022-07-23T19:07:47;3.67;;;3.38;;
60494;SDS011;46342;49.046;11.920;2022-07-23T19:10:13;4.85;;;3.20;;
60494;SDS011;46342;49.046;11.920;2022-07-23T19:12:39;3.70;;;3.40;;
60494;SDS011;46342;49.046;11.920;2022-07-23T19:15:04;4.82;;;3.45;;
60494;SDS011;46342;49.046;11.920;2022-07-23T19:17:30;3.72;;;3.35;;
60494;SDS011;46342;49.046;11.920;2022-07-23T19:19:56;3.85;;;3.53;;
60494;SDS011;46342;49.046;11.920;2022-07-23T19:22:22;4.30;;;3.20;;
60494;SDS011;46342;49.046;11.920;2022-07-23T19:24:48;4.43;;;3.30;;
60494;SDS011;46342;49.046;11.920;2022-07-23T19:27:13;4.13;;;3.72;;
60494;SDS011;46342;49.046;11.920;2022-07-23T19:29:39;3.63;;;3.33;;
60494;SDS011;46342;49.046;11.920;2022-07-23T19:32:05;3.50;;;3.20;;
60494;SDS011;46342;49.046;11.920;2022-07-23T19:34:31;6.72;;;3.33;;
60494;SDS011;46342;49.046;11.920;2022-07-23T19:36:57;3.55;;;3.22;;
60494;SDS011;46342;49.046;11.920;2022-07-23T19:39:24;5.03;;;3.42;;
60494;SDS011;46342;49.046;11.920;2022-07-23T19:41:50;4.20;;;3.80;;
60494;SDS011;46342;49.046;11.920;2022-07-23T19:44:16;5.00;;;3.80;;
60494;SDS011;46342;49.046;11.920;2022-07-23T19:46:41;3.83;;;3.50;;
60494;SDS011;46342;49.046;11.920;2022-07-23T19:49:07;3.97;;;3.38;;
60494;SDS011;46342;49.046;11.920;2022-07-23T19:51:33;4.00;;;3.60;;
60494;SDS011;46342;49.046;11.920;2022-07-23T19:53:59;4.45;;;3.55;;
60494;SDS011;46342;49.046;11.920;2022-07-23T19:56:25;3.88;;;3.42;;
60494;SDS011;46342;49.046;11.920;2022-07-23T19:58:50;4.53;;;3.80;;
60494;SDS011;46342;49.046;11.920;2022-07-23T20:01:17;5.15;;;3.58;;
60494;SDS011;46342;49.046;11.920;2022-07-23T20:03:43;4.03;;;3.73;;
60494;SDS011;46342;49.046;11.920;2022-07-23T20:06:08;3.92;;;3.50;;
60494;SDS011;46342;49.046;11.920;2022-07-23T20:08:34;5.55;;;3.90;;
60494;SDS011;46342;49.046;11.920;2022-07-23T20:11:00;4.05;;;3.60;;
60494;SDS011;46342;49.046;11.920;2022-07-23T20:13:25;3.90;;;3.60;;
60494;SDS011;46342;49.046;11.920;2022-07-23T20:15:51;5.93;;;4.10;;
60494;SDS011;46342;49.046;11.920;2022-07-23T20:18:17;4.35;;;3.53;;
60494;SDS011;46342;49.046;11.920;2022-07-23T20:20:43;5.82;;;3.88;;
60494;SDS011;46342;49.046;11.920;2022-07-23T20:23:09;4.78;;;3.95;;
60494;SDS011;46342;49.046;11.920;2022-07-23T20:25:35;4.38;;;3.88;;
60494;SDS011;46342;49.046;11.920;2022-07-23T20:28:00;4.15;;;3.65;;
60494;SDS011;46342;49.046;11.920;2022-07-23T20:30:36;4.35;;;3.95;;
60494;SDS011;46342;49.046;11.920;2022-07-23T20:33:02;4.40;;;3.97;;
60494;SDS011;46342;49.046;11.920;2022-07-23T20:35:28;3.85;;;3.47;;
60494;SDS011;46342;49.046;11.920;2022-07-23T20:37:54;4.78;;;4.05;;
60494;SDS011;46342;49.046;11.920;2022-07-23T20:40:19;4.60;;;4.15;;